Terminal Aerodrome Forecast
Issued by NWS Albany, NY

Home | Current Version | Previous Version | Text Only | Print | Product List | Glossary On
Versions: 1 2 3 4 5 6 7 8 9 10 11 12 13 14 15 16 17 18 19 20
000
FTUS41 KALY 011134
TAFGFL
TAF
KGFL 011134Z 0112/0212 16003KT P6SM SCT050 BKN100
     FM011600 23010G18KT P6SM VCSH BKN050 BKN100
     FM012200 25010G18KT P6SM SCT050 SCT100
     FM012300 25008KT P6SM SCT050 SCT100
     FM020200 VRB03KT P6SM SCT050 SCT250
     FM020600 00000KT 3SM BR SCT250=

USA.gov is the U.S. government's official web portal to all federal, state and local government web resources and services.